createdAt,value
2022-08-21T00:00:18.477Z,4.10
2022-08-21T00:01:18.475Z,3.60
2022-08-21T00:02:18.490Z,4.10
2022-08-21T00:03:18.455Z,4.10
2022-08-21T00:04:22.062Z,3.90
2022-08-21T00:05:18.476Z,3.60
2022-08-21T00:06:18.415Z,3.50
2022-08-21T00:07:18.406Z,3.70
2022-08-21T00:08:18.396Z,3.70
2022-08-21T00:09:18.395Z,3.60
2022-08-21T00:10:18.415Z,4.40
2022-08-21T00:11:18.374Z,4.60
2022-08-21T00:12:18.347Z,3.90
2022-08-21T00:13:18.784Z,3.80
2022-08-21T00:14:18.327Z,3.90
2022-08-21T00:15:18.326Z,3.70
2022-08-21T00:16:18.336Z,3.90
2022-08-21T00:17:18.296Z,3.90
2022-08-21T00:18:18.285Z,4.20
2022-08-21T00:19:18.287Z,4.40
2022-08-21T00:20:18.296Z,4.20
2022-08-21T00:21:18.266Z,4.00
2022-08-21T00:22:18.274Z,4.00
2022-08-21T00:23:18.236Z,3.80
2022-08-21T00:24:18.229Z,4.00
2022-08-21T00:25:18.246Z,3.80
2022-08-21T00:26:18.229Z,4.00
2022-08-21T00:27:18.196Z,3.80
2022-08-21T00:28:18.414Z,3.90
2022-08-21T00:29:18.187Z,3.80
2022-08-21T00:30:23.385Z,3.60
2022-08-21T00:31:19.156Z,3.70
2022-08-21T00:32:18.139Z,3.80
2022-08-21T00:33:18.157Z,3.70
2022-08-21T00:34:18.157Z,4.10
2022-08-21T00:35:18.117Z,4.00
2022-08-21T00:36:18.098Z,3.70
2022-08-21T00:37:18.087Z,3.70
2022-08-21T00:38:18.107Z,3.90
2022-08-21T00:39:18.068Z,3.90
2022-08-21T00:40:18.154Z,3.80
2022-08-21T00:41:36.973Z,3.70
2022-08-21T00:42:19.029Z,3.70
2022-08-21T00:43:18.028Z,3.90
2022-08-21T00:44:18.049Z,3.70
2022-08-21T00:45:18.007Z,3.60
2022-08-21T00:46:18.027Z,4.10
2022-08-21T00:47:17.987Z,4.00
2022-08-21T00:48:17.968Z,3.90
2022-08-21T00:49:18.010Z,4.00
2022-08-21T00:50:21.607Z,3.70
2022-08-21T00:51:17.966Z,4.00
2022-08-21T00:52:17.928Z,3.90
2022-08-21T00:53:17.918Z,4.00
2022-08-21T00:54:18.947Z,4.10
2022-08-21T00:55:17.934Z,4.30
2022-08-21T00:56:17.890Z,3.90
2022-08-21T00:57:17.902Z,4.20
2022-08-21T00:58:17.877Z,4.10
2022-08-21T00:59:17.858Z,3.90
2022-08-21T01:00:17.853Z,4.10
2022-08-21T01:01:17.983Z,4.20
2022-08-21T01:02:17.829Z,4.00
2022-08-21T01:03:17.809Z,4.30
2022-08-21T01:04:17.828Z,4.90
2022-08-21T01:05:17.801Z,4.30
2022-08-21T01:06:17.778Z,4.30
2022-08-21T01:07:17.799Z,4.70
2022-08-21T01:08:17.759Z,3.70
2022-08-21T01:09:17.749Z,4.00
2022-08-21T01:10:24.066Z,4.50
2022-08-21T01:11:18.739Z,4.50
2022-08-21T01:12:17.758Z,4.30
2022-08-21T01:13:17.699Z,4.20
2022-08-21T01:14:17.689Z,4.40
2022-08-21T01:15:17.690Z,4.40
2022-08-21T01:16:17.675Z,4.90
2022-08-21T01:17:17.690Z,4.10
2022-08-21T01:18:17.692Z,4.20
2022-08-21T01:19:17.710Z,4.30
2022-08-21T01:20:17.630Z,3.90
2022-08-21T01:21:17.631Z,4.00
2022-08-21T01:22:17.609Z,4.00
2022-08-21T01:23:17.599Z,4.10
2022-08-21T01:24:17.623Z,4.40
2022-08-21T01:25:17.579Z,4.40
2022-08-21T01:26:17.599Z,4.20
2022-08-21T01:27:17.586Z,4.20
2022-08-21T01:28:17.568Z,4.30
2022-08-21T01:29:17.542Z,4.40
2022-08-21T01:30:17.519Z,4.00
2022-08-21T01:31:17.549Z,4.40
2022-08-21T01:32:18.520Z,4.40
2022-08-21T01:33:17.497Z,4.30
2022-08-21T01:34:17.569Z,4.50
2022-08-21T01:35:17.470Z,5.10
2022-08-21T01:36:17.480Z,4.20
2022-08-21T01:37:17.916Z,4.70
2022-08-21T01:38:17.479Z,4.80
2022-08-21T01:39:17.428Z,4.20
2022-08-21T01:40:17.472Z,4.10
2022-08-21T01:41:17.410Z,4.20
2022-08-21T01:42:17.431Z,4.80
2022-08-21T01:43:17.380Z,4.40
2022-08-21T01:44:18.400Z,4.20
2022-08-21T01:45:17.390Z,4.50
2022-08-21T01:46:17.351Z,4.50
2022-08-21T01:47:17.706Z,4.60
2022-08-21T01:48:17.336Z,4.80
2022-08-21T01:49:17.320Z,4.40
2022-08-21T01:50:17.351Z,5.00
2022-08-21T01:51:17.300Z,5.00
2022-08-21T01:52:17.292Z,5.70
2022-08-21T01:53:17.279Z,4.70
2022-08-21T01:54:17.274Z,4.60
2022-08-21T01:55:17.252Z,4.50
2022-08-21T01:56:17.271Z,4.60
2022-08-21T01:57:17.232Z,4.30
2022-08-21T01:58:17.221Z,13.10
2022-08-21T01:59:17.210Z,10.60
2022-08-21T02:00:17.350Z,5.20
2022-08-21T02:01:17.251Z,5.00
2022-08-21T02:02:17.183Z,5.10
2022-08-21T02:03:19.938Z,4.50
2022-08-21T02:04:18.202Z,4.90
2022-08-21T02:05:17.182Z,5.30
2022-08-21T02:06:17.140Z,5.20
2022-08-21T02:07:17.120Z,5.30
2022-08-21T02:08:17.143Z,4.90
2022-08-21T02:09:17.109Z,5.40
2022-08-21T02:10:17.151Z,6.40
2022-08-21T02:11:17.122Z,5.90
2022-08-21T02:12:17.079Z,6.10
2022-08-21T02:13:17.061Z,4.90
2022-08-21T02:14:32.221Z,5.10
2022-08-21T02:15:18.038Z,7.00
2022-08-21T02:16:19.423Z,4.80
2022-08-21T02:17:17.021Z,4.90
2022-08-21T02:18:17.041Z,5.00
2022-08-21T02:19:16.991Z,4.60
2022-08-21T02:20:16.991Z,5.20
2022-08-21T02:21:16.982Z,5.10
2022-08-21T02:22:16.962Z,4.90
2022-08-21T02:23:26.567Z,5.00
2022-08-21T02:24:17.952Z,5.10
2022-08-21T02:25:16.931Z,5.00
2022-08-21T02:26:16.922Z,5.20
2022-08-21T02:27:16.916Z,5.20
2022-08-21T02:28:17.982Z,5.00
2022-08-21T02:29:16.891Z,4.70
2022-08-21T02:30:16.881Z,4.80
2022-08-21T02:31:16.871Z,4.90
2022-08-21T02:32:16.851Z,5.10
2022-08-21T02:33:16.850Z,5.10
2022-08-21T02:34:16.871Z,5.40
2022-08-21T02:35:16.852Z,5.00
2022-08-21T02:36:16.837Z,4.80
2022-08-21T02:37:16.801Z,4.90
2022-08-21T02:38:23.521Z,4.90
2022-08-21T02:39:16.771Z,4.80
2022-08-21T02:40:17.861Z,5.40
2022-08-21T02:41:16.770Z,5.30
2022-08-21T02:42:16.782Z,5.40
2022-08-21T02:43:16.732Z,5.90
2022-08-21T02:44:16.764Z,5.20
2022-08-21T02:45:16.712Z,5.30
2022-08-21T02:46:16.712Z,5.20
2022-08-21T02:47:16.699Z,5.40
2022-08-21T02:48:16.690Z,5.00
2022-08-21T02:49:16.683Z,5.20
2022-08-21T02:50:16.702Z,5.30
2022-08-21T02:51:16.661Z,5.30
2022-08-21T02:52:16.642Z,5.30
2022-08-21T02:53:16.659Z,5.30
2022-08-21T02:54:16.624Z,5.60
2022-08-21T02:55:16.604Z,5.60
2022-08-21T02:56:16.601Z,5.40
2022-08-21T02:57:16.582Z,4.90
2022-08-21T02:58:16.619Z,5.30
2022-08-21T02:59:16.622Z,5.70
2022-08-21T03:00:16.552Z,5.20
2022-08-21T03:01:16.618Z,5.80
2022-08-21T03:02:16.541Z,5.20
2022-08-21T03:03:16.522Z,5.50
2022-08-21T03:04:16.544Z,5.30
2022-08-21T03:05:16.503Z,5.50
2022-08-21T03:06:16.491Z,5.60
2022-08-21T03:07:16.478Z,5.80
2022-08-21T03:08:16.472Z,5.30
2022-08-21T03:09:16.502Z,5.60
2022-08-21T03:10:16.451Z,5.40
2022-08-21T03:11:16.441Z,5.90
2022-08-21T03:12:16.432Z,5.50
2022-08-21T03:13:16.413Z,5.50
2022-08-21T03:14:16.442Z,5.90
2022-08-21T03:15:16.392Z,5.80
2022-08-21T03:16:16.412Z,5.70
2022-08-21T03:17:16.424Z,6.10
2022-08-21T03:18:16.392Z,6.70
2022-08-21T03:19:16.342Z,6.40
2022-08-21T03:20:16.343Z,6.20
2022-08-21T03:21:16.332Z,6.00
2022-08-21T03:22:16.324Z,5.60
2022-08-21T03:23:18.496Z,5.80
2022-08-21T03:24:16.331Z,5.50
2022-08-21T03:25:16.303Z,6.10
2022-08-21T03:26:16.285Z,6.60
2022-08-21T03:27:16.263Z,12.00
2022-08-21T03:28:16.253Z,8.00
2022-08-21T03:29:16.242Z,5.70
2022-08-21T03:30:16.265Z,6.40
2022-08-21T03:31:16.222Z,6.40
2022-08-21T03:32:16.253Z,6.00
2022-08-21T03:33:16.202Z,6.20
2022-08-21T03:34:16.193Z,6.30
2022-08-21T03:35:16.201Z,6.30
2022-08-21T03:36:16.175Z,6.10
2022-08-21T03:37:16.152Z,6.50
2022-08-21T03:38:16.270Z,6.20
2022-08-21T03:39:16.150Z,7.30
2022-08-21T03:40:16.183Z,7.10
2022-08-21T03:41:16.122Z,6.80
2022-08-21T03:42:16.109Z,6.30
2022-08-21T03:43:16.091Z,7.50
2022-08-21T03:44:16.120Z,7.60
2022-08-21T03:45:16.063Z,6.80
2022-08-21T03:46:16.067Z,8.40
2022-08-21T03:47:16.043Z,9.00
2022-08-21T03:48:16.076Z,9.20
2022-08-21T03:49:16.054Z,10.20
2022-08-21T03:50:16.053Z,9.20
2022-08-21T03:51:16.012Z,16.60
2022-08-21T03:52:16.002Z,9.40
2022-08-21T03:53:16.840Z,7.90
2022-08-21T03:54:16.022Z,8.20
2022-08-21T03:55:16.011Z,8.40
2022-08-21T03:56:15.953Z,8.50
2022-08-21T03:57:15.945Z,6.70
2022-08-21T03:58:16.304Z,6.70
2022-08-21T03:59:15.922Z,6.40
2022-08-21T04:00:15.914Z,6.70
2022-08-21T04:01:15.972Z,13.30
2022-08-21T04:02:15.894Z,11.10
2022-08-21T04:03:15.889Z,9.70
2022-08-21T04:04:15.941Z,8.70
2022-08-21T04:05:15.853Z,8.80
2022-08-21T04:06:15.843Z,7.70
2022-08-21T04:07:15.832Z,7.30
2022-08-21T04:08:15.834Z,7.90
2022-08-21T04:09:15.813Z,8.20
2022-08-21T04:10:15.853Z,9.20
2022-08-21T04:11:15.805Z,8.80
2022-08-21T04:12:15.783Z,7.50
2022-08-21T04:13:15.763Z,7.50
2022-08-21T04:14:15.776Z,7.60
2022-08-21T04:15:15.758Z,10.30
2022-08-21T04:16:15.783Z,6.60
2022-08-21T04:17:15.734Z,6.70
2022-08-21T04:18:15.723Z,6.70
2022-08-21T04:19:15.703Z,10.00
2022-08-21T04:20:15.785Z,9.50
2022-08-21T04:21:15.819Z,10.10
2022-08-21T04:22:15.704Z,9.00
2022-08-21T04:23:23.788Z,7.20
2022-08-21T04:24:16.654Z,67.80
2022-08-21T04:25:15.651Z,49.30
2022-08-21T04:26:15.638Z,26.50
2022-08-21T04:27:15.628Z,10.50
2022-08-21T04:28:15.613Z,8.80
2022-08-21T04:29:15.633Z,7.10
2022-08-21T04:30:15.597Z,7.50
2022-08-21T04:31:15.591Z,7.60
2022-08-21T04:32:15.571Z,7.30
2022-08-21T04:33:15.563Z,7.50
2022-08-21T04:34:15.553Z,8.10
2022-08-21T04:35:15.563Z,8.40
2022-08-21T04:36:15.531Z,8.00
2022-08-21T04:37:15.543Z,9.00
2022-08-21T04:38:15.504Z,7.90
2022-08-21T04:39:15.511Z,7.50
2022-08-21T04:40:15.564Z,8.00
2022-08-21T04:41:15.485Z,8.40
2022-08-21T04:42:15.463Z,7.80
2022-08-21T04:43:15.475Z,52.30
2022-08-21T04:44:15.435Z,20.80
2022-08-21T04:45:15.424Z,8.70
2022-08-21T04:46:15.423Z,8.50
2022-08-21T04:47:15.403Z,8.40
2022-08-21T04:48:15.425Z,6.80
2022-08-21T04:49:15.424Z,6.10
2022-08-21T04:50:15.385Z,6.50
2022-08-21T04:51:15.384Z,6.80
2022-08-21T04:52:15.384Z,6.40
2022-08-21T04:53:15.342Z,7.20
2022-08-21T04:54:15.372Z,7.40
2022-08-21T04:55:15.313Z,7.20
2022-08-21T04:56:15.314Z,7.10
2022-08-21T04:57:15.294Z,7.40
2022-08-21T04:58:15.292Z,7.40
2022-08-21T04:59:15.304Z,7.40
2022-08-21T05:00:15.266Z,7.30
2022-08-21T05:01:15.328Z,7.30
2022-08-21T05:02:15.254Z,7.70
2022-08-21T05:03:15.235Z,7.40
2022-08-21T05:04:15.305Z,7.20
2022-08-21T05:05:15.204Z,7.30
2022-08-21T05:06:15.205Z,6.70
2022-08-21T05:07:15.191Z,6.90
2022-08-21T05:08:15.186Z,6.70
2022-08-21T05:09:15.214Z,8.10
2022-08-21T05:10:15.188Z,6.10
2022-08-21T05:11:15.159Z,12.70
2022-08-21T05:12:15.134Z,8.70
2022-08-21T05:13:15.143Z,6.50
2022-08-21T05:14:15.122Z,6.40
2022-08-21T05:15:15.135Z,5.70
2022-08-21T05:16:15.093Z,5.90
2022-08-21T05:17:16.085Z,5.60
2022-08-21T05:18:15.115Z,5.90
2022-08-21T05:19:15.092Z,5.60
2022-08-21T05:20:15.057Z,5.90
2022-08-21T05:21:15.047Z,5.60
2022-08-21T05:22:15.032Z,6.30
2022-08-21T05:23:15.015Z,6.60
2022-08-21T05:24:15.005Z,6.10
2022-08-21T05:25:15.025Z,6.70
2022-08-21T05:26:18.079Z,6.10
2022-08-21T05:27:14.974Z,6.00
2022-08-21T05:28:14.974Z,5.90
2022-08-21T05:29:14.990Z,6.90
2022-08-21T05:30:14.944Z,7.10
2022-08-21T05:31:14.974Z,6.60
2022-08-21T05:32:14.924Z,6.50
2022-08-21T05:33:14.927Z,6.60
2022-08-21T05:34:16.157Z,6.50
2022-08-21T05:35:14.886Z,6.60
2022-08-21T05:36:14.875Z,6.80
2022-08-21T05:37:14.894Z,6.70
2022-08-21T05:38:16.722Z,7.00
2022-08-21T05:39:14.859Z,7.10
2022-08-21T05:40:22.690Z,7.20
2022-08-21T05:41:15.834Z,7.30
2022-08-21T05:42:14.876Z,7.00
2022-08-21T05:43:14.805Z,7.10
2022-08-21T05:44:14.795Z,7.20
2022-08-21T05:45:14.774Z,6.90
2022-08-21T05:46:14.774Z,7.70
2022-08-21T05:47:14.816Z,7.70
2022-08-21T05:48:14.750Z,7.90
2022-08-21T05:49:14.765Z,7.90
2022-08-21T05:50:14.734Z,8.00
2022-08-21T05:51:14.715Z,9.00
2022-08-21T05:52:14.705Z,8.80
2022-08-21T05:53:14.729Z,9.00
2022-08-21T05:54:14.695Z,8.60
2022-08-21T05:55:14.674Z,9.30
2022-08-21T05:56:14.678Z,8.80
2022-08-21T05:57:14.696Z,9.00
2022-08-21T05:58:14.644Z,9.30
2022-08-21T05:59:14.669Z,10.20
2022-08-21T06:00:14.625Z,9.60
2022-08-21T06:01:14.645Z,9.50
2022-08-21T06:02:14.628Z,10.00
2022-08-21T06:03:14.635Z,9.50
2022-08-21T06:04:14.578Z,9.40
2022-08-21T06:05:14.566Z,10.30
2022-08-21T06:06:15.566Z,9.90
2022-08-21T06:07:15.166Z,9.80
2022-08-21T06:08:14.524Z,9.60
2022-08-21T06:09:14.566Z,9.70
2022-08-21T06:10:14.515Z,10.00
2022-08-21T06:11:14.535Z,10.10
2022-08-21T06:12:14.485Z,10.00
2022-08-21T06:13:14.485Z,10.10
2022-08-21T06:14:14.495Z,10.20
2022-08-21T06:15:14.476Z,10.20
2022-08-21T06:16:15.773Z,10.40
2022-08-21T06:17:14.446Z,9.90
2022-08-21T06:18:14.446Z,10.30
2022-08-21T06:19:14.416Z,10.30
2022-08-21T06:20:14.436Z,10.20
2022-08-21T06:21:14.531Z,10.20
2022-08-21T06:22:14.385Z,10.60
2022-08-21T06:23:14.377Z,10.10
2022-08-21T06:24:14.395Z,10.60
2022-08-21T06:25:14.389Z,9.90
2022-08-21T06:26:14.336Z,10.20
2022-08-21T06:27:14.326Z,10.80
2022-08-21T06:28:14.334Z,10.70
2022-08-21T06:29:14.347Z,10.30
2022-08-21T06:30:14.296Z,11.10
2022-08-21T06:31:14.297Z,10.70
2022-08-21T06:32:14.306Z,10.90
2022-08-21T06:33:14.285Z,11.50
2022-08-21T06:34:14.285Z,11.00
2022-08-21T06:35:14.253Z,11.10
2022-08-21T06:36:14.226Z,10.90
2022-08-21T06:37:14.280Z,11.60
2022-08-21T06:38:14.215Z,10.40
2022-08-21T06:39:24.964Z,10.60
2022-08-21T06:40:15.255Z,11.00
2022-08-21T06:41:14.196Z,11.30
2022-08-21T06:42:14.166Z,11.20
2022-08-21T06:43:15.079Z,10.90
2022-08-21T06:44:14.147Z,10.50
2022-08-21T06:45:14.144Z,10.30
2022-08-21T06:46:14.126Z,10.30
2022-08-21T06:47:14.123Z,10.40
2022-08-21T06:48:18.906Z,10.00
2022-08-21T06:49:21.615Z,9.50
2022-08-21T06:50:15.086Z,9.80
2022-08-21T06:51:14.110Z,10.00
2022-08-21T06:52:14.069Z,9.70
2022-08-21T06:53:14.056Z,9.70
2022-08-21T06:54:14.047Z,9.70
2022-08-21T06:55:14.155Z,10.20
2022-08-21T06:56:15.026Z,9.40
2022-08-21T06:57:14.046Z,9.40
2022-08-21T06:58:13.996Z,10.00
2022-08-21T06:59:14.027Z,9.00
2022-08-21T07:00:13.978Z,9.40
2022-08-21T07:01:14.014Z,9.10
2022-08-21T07:02:13.957Z,9.00
2022-08-21T07:03:13.956Z,10.50
2022-08-21T07:04:13.937Z,9.60
2022-08-21T07:05:17.797Z,9.30
2022-08-21T07:06:13.939Z,10.30
2022-08-21T07:07:13.907Z,9.30
2022-08-21T07:08:13.887Z,9.50
2022-08-21T07:09:13.919Z,9.70
2022-08-21T07:10:22.513Z,9.40
2022-08-21T07:11:14.897Z,8.90
2022-08-21T07:12:13.847Z,9.00
2022-08-21T07:13:13.877Z,9.10
2022-08-21T07:14:20.193Z,9.00
2022-08-21T07:15:14.827Z,8.80
2022-08-21T07:16:13.807Z,8.30
2022-08-21T07:17:13.805Z,8.10
2022-08-21T07:18:13.786Z,8.20
2022-08-21T07:19:13.807Z,7.60
2022-08-21T07:20:13.770Z,7.20
2022-08-21T07:21:13.808Z,6.90
2022-08-21T07:22:13.738Z,6.50
2022-08-21T07:23:13.728Z,6.20
2022-08-21T07:24:13.727Z,6.20
2022-08-21T07:25:13.710Z,6.40
2022-08-21T07:26:13.703Z,5.90
2022-08-21T07:27:13.737Z,5.70
2022-08-21T07:28:13.678Z,5.90
2022-08-21T07:29:13.668Z,5.70
2022-08-21T07:30:13.659Z,5.40
2022-08-21T07:31:13.697Z,5.50
2022-08-21T07:32:16.274Z,5.50
2022-08-21T07:33:13.658Z,5.00
2022-08-21T07:34:13.617Z,5.10
2022-08-21T07:35:13.611Z,5.30
2022-08-21T07:36:13.590Z,5.10
2022-08-21T07:37:13.585Z,5.00
2022-08-21T07:38:13.618Z,4.80
2022-08-21T07:39:13.568Z,5.30
2022-08-21T07:40:13.645Z,4.90
2022-08-21T07:41:13.559Z,5.10
2022-08-21T07:42:13.528Z,5.30
2022-08-21T07:43:13.519Z,5.00
2022-08-21T07:44:13.528Z,4.70
2022-08-21T07:45:13.498Z,4.70
2022-08-21T07:46:13.519Z,5.10
2022-08-21T07:47:13.487Z,4.40
2022-08-21T07:48:13.469Z,4.20
2022-08-21T07:49:13.561Z,4.70
2022-08-21T07:50:13.440Z,4.50
2022-08-21T07:51:13.469Z,4.50
2022-08-21T07:52:13.438Z,4.80
2022-08-21T07:53:13.458Z,4.40
2022-08-21T07:54:17.191Z,4.30
2022-08-21T07:55:13.401Z,4.60
2022-08-21T07:56:13.381Z,4.40
2022-08-21T07:57:13.415Z,4.70
2022-08-21T07:58:13.367Z,4.70
2022-08-21T07:59:13.694Z,4.70
2022-08-21T08:00:13.347Z,4.30
2022-08-21T08:01:13.423Z,4.50
2022-08-21T08:02:13.329Z,4.50
2022-08-21T08:03:13.338Z,4.00
2022-08-21T08:04:13.576Z,4.00
2022-08-21T08:05:13.292Z,4.50
2022-08-21T08:06:13.390Z,4.00
2022-08-21T08:07:13.271Z,3.50
2022-08-21T08:08:13.257Z,3.60
2022-08-21T08:09:13.573Z,3.40
2022-08-21T08:10:13.242Z,4.00
2022-08-21T08:11:13.278Z,3.00
2022-08-21T08:12:13.260Z,3.10
2022-08-21T08:13:13.210Z,3.30
2022-08-21T08:14:13.180Z,3.50
2022-08-21T08:15:13.181Z,3.60
2022-08-21T08:16:13.182Z,3.60
2022-08-21T08:17:13.160Z,3.10
2022-08-21T08:18:13.271Z,3.50
2022-08-21T08:19:13.152Z,3.40
2022-08-21T08:20:13.188Z,3.20
2022-08-21T08:21:13.118Z,3.60
2022-08-21T08:22:13.100Z,3.60
2022-08-21T08:23:13.092Z,4.10
2022-08-21T08:24:14.338Z,3.50
2022-08-21T08:25:14.073Z,3.60
2022-08-21T08:26:13.050Z,3.50
2022-08-21T08:27:13.050Z,3.70
2022-08-21T08:28:17.179Z,3.60
2022-08-21T08:29:13.041Z,3.60
2022-08-21T08:30:13.032Z,3.30
2022-08-21T08:31:13.010Z,3.50
2022-08-21T08:32:13.034Z,3.90
2022-08-21T08:33:13.019Z,4.10
2022-08-21T08:34:13.000Z,3.30
2022-08-21T08:35:14.010Z,3.80
2022-08-21T08:36:12.950Z,3.70
2022-08-21T08:37:12.941Z,3.50
2022-08-21T08:38:12.951Z,3.70
2022-08-21T08:39:12.970Z,3.20
2022-08-21T08:40:13.934Z,3.20
2022-08-21T08:41:12.901Z,3.10
2022-08-21T08:42:33.686Z,3.90
2022-08-21T08:43:14.673Z,3.30
2022-08-21T08:44:12.870Z,3.40
2022-08-21T08:45:12.880Z,3.30
2022-08-21T08:46:12.834Z,3.30
2022-08-21T08:47:12.832Z,3.80
2022-08-21T08:48:14.005Z,3.70
2022-08-21T08:49:12.811Z,3.20
2022-08-21T08:50:12.791Z,3.30
2022-08-21T08:51:12.823Z,3.30
2022-08-21T08:52:12.783Z,3.00
2022-08-21T08:53:12.781Z,3.50
2022-08-21T08:54:12.760Z,3.00
2022-08-21T08:55:12.753Z,3.00
2022-08-21T08:56:12.771Z,3.00
2022-08-21T08:57:12.733Z,3.30
2022-08-21T08:58:12.713Z,3.10
2022-08-21T08:59:12.740Z,3.30
2022-08-21T09:00:12.695Z,3.10
2022-08-21T09:01:12.882Z,2.90
2022-08-21T09:02:12.673Z,2.80
2022-08-21T09:03:12.683Z,2.70
2022-08-21T09:04:12.654Z,2.80
2022-08-21T09:05:12.663Z,3.00
2022-08-21T09:06:12.652Z,3.00
2022-08-21T09:07:12.613Z,2.60
2022-08-21T09:08:16.650Z,2.60
2022-08-21T09:09:13.603Z,2.60
2022-08-21T09:10:12.591Z,2.60
2022-08-21T09:11:12.595Z,2.80
2022-08-21T09:12:12.754Z,2.80
2022-08-21T09:13:12.554Z,2.90
2022-08-21T09:14:12.552Z,2.80
2022-08-21T09:15:12.549Z,3.40
2022-08-21T09:16:12.524Z,2.90
2022-08-21T09:17:12.533Z,2.90
2022-08-21T09:18:12.660Z,2.60
2022-08-21T09:19:12.505Z,2.50
2022-08-21T09:20:12.475Z,2.60
2022-08-21T09:21:12.495Z,2.20
2022-08-21T09:22:12.514Z,2.80
2022-08-21T09:23:12.445Z,2.80
2022-08-21T09:24:12.435Z,2.60
2022-08-21T09:25:12.474Z,2.60
2022-08-21T09:26:12.415Z,2.60
2022-08-21T09:27:12.405Z,2.30
2022-08-21T09:28:12.493Z,2.60
2022-08-21T09:29:12.418Z,2.70
2022-08-21T09:30:12.375Z,2.40
2022-08-21T09:31:12.374Z,2.30
2022-08-21T09:32:15.423Z,2.00
2022-08-21T09:33:13.414Z,2.60
2022-08-21T09:34:12.399Z,2.50
2022-08-21T09:35:12.365Z,2.40
2022-08-21T09:36:12.375Z,2.60
2022-08-21T09:37:12.305Z,2.40
2022-08-21T09:38:12.285Z,2.30
2022-08-21T09:39:12.314Z,2.40
2022-08-21T09:40:12.304Z,2.70
2022-08-21T09:41:12.298Z,2.40
2022-08-21T09:42:12.255Z,2.50
2022-08-21T09:43:12.239Z,2.20
2022-08-21T09:44:12.225Z,2.40
2022-08-21T09:45:12.245Z,2.20
2022-08-21T09:46:12.207Z,2.50
2022-08-21T09:47:12.199Z,2.30
2022-08-21T09:48:12.194Z,2.20
2022-08-21T09:49:13.511Z,1.90
2022-08-21T09:50:12.161Z,2.20
2022-08-21T09:51:12.203Z,2.20
2022-08-21T09:52:12.146Z,2.30
2022-08-21T09:53:12.136Z,1.90
2022-08-21T09:54:12.156Z,1.70
2022-08-21T09:55:12.145Z,2.00
2022-08-21T09:56:12.117Z,1.90
2022-08-21T09:57:12.086Z,1.90
2022-08-21T09:58:12.107Z,2.20
2022-08-21T09:59:12.076Z,2.00
2022-08-21T10:00:12.055Z,2.20
2022-08-21T10:01:12.088Z,2.00
2022-08-21T10:02:12.055Z,1.90
2022-08-21T10:03:12.027Z,1.80
2022-08-21T10:04:12.074Z,1.60
2022-08-21T10:05:12.007Z,1.60
2022-08-21T10:06:11.996Z,1.30
2022-08-21T10:07:11.977Z,1.50
2022-08-21T10:08:11.968Z,1.40
2022-08-21T10:09:17.080Z,1.60
2022-08-21T10:10:12.987Z,1.90
2022-08-21T10:11:11.947Z,1.70
2022-08-21T10:12:11.933Z,1.40
2022-08-21T10:13:11.918Z,1.70
2022-08-21T10:14:11.907Z,1.80
2022-08-21T10:15:11.897Z,1.50
2022-08-21T10:16:11.918Z,1.20
2022-08-21T10:17:11.898Z,1.70
2022-08-21T10:18:12.056Z,1.40
2022-08-21T10:19:11.909Z,1.30
2022-08-21T10:20:11.839Z,1.50
2022-08-21T10:21:12.269Z,1.50
2022-08-21T10:22:11.827Z,1.60
2022-08-21T10:23:11.848Z,1.30
2022-08-21T10:24:11.828Z,1.30
2022-08-21T10:25:12.788Z,1.50
2022-08-21T10:26:13.834Z,1.60
2022-08-21T10:27:11.789Z,1.70
2022-08-21T10:28:13.864Z,1.50
2022-08-21T10:29:11.793Z,1.30
2022-08-21T10:30:11.778Z,1.30
2022-08-21T10:31:11.719Z,1.50
2022-08-21T10:32:26.059Z,1.60
2022-08-21T10:33:12.698Z,1.70
2022-08-21T10:34:11.708Z,1.30
2022-08-21T10:35:11.689Z,1.30
2022-08-21T10:36:11.729Z,1.60
2022-08-21T10:37:11.668Z,1.60
2022-08-21T10:38:23.504Z,1.40
2022-08-21T10:39:26.670Z,1.40
2022-08-21T10:40:12.758Z,1.50
2022-08-21T10:41:11.667Z,1.70
2022-08-21T10:42:11.622Z,1.60
2022-08-21T10:43:11.590Z,1.50
2022-08-21T10:44:11.599Z,1.30
2022-08-21T10:45:11.579Z,1.40
2022-08-21T10:46:18.614Z,1.20
2022-08-21T10:47:11.555Z,1.30
2022-08-21T10:48:11.583Z,1.40
2022-08-21T10:49:11.583Z,1.60
2022-08-21T10:50:11.533Z,1.50
2022-08-21T10:51:11.535Z,1.20
2022-08-21T10:52:11.504Z,1.30
2022-08-21T10:53:11.544Z,1.70
2022-08-21T10:54:11.514Z,1.40
2022-08-21T10:55:11.494Z,1.30
2022-08-21T10:56:11.489Z,1.40
2022-08-21T10:57:11.456Z,1.40
2022-08-21T10:58:11.448Z,1.70
2022-08-21T10:59:11.434Z,1.50
2022-08-21T11:00:11.607Z,1.30
2022-08-21T11:01:11.516Z,1.30
2022-08-21T11:02:11.431Z,1.20
2022-08-21T11:03:11.405Z,1.20
2022-08-21T11:04:11.406Z,1.20
2022-08-21T11:05:11.365Z,1.10
2022-08-21T11:06:11.365Z,1.30
2022-08-21T11:07:17.647Z,1.20
2022-08-21T11:08:12.332Z,1.30
2022-08-21T11:09:11.355Z,1.40
2022-08-21T11:10:11.372Z,1.20
2022-08-21T11:11:11.296Z,1.30
2022-08-21T11:12:12.360Z,1.30
2022-08-21T11:13:11.276Z,1.30
2022-08-21T11:14:11.306Z,1.30
2022-08-21T11:15:28.625Z,1.40
2022-08-21T11:16:12.246Z,1.10
2022-08-21T11:17:11.987Z,1.50
2022-08-21T11:18:11.254Z,1.40
2022-08-21T11:19:11.215Z,1.30
2022-08-21T11:20:11.270Z,1.40
2022-08-21T11:21:11.188Z,1.60
2022-08-21T11:22:11.247Z,1.70
2022-08-21T11:23:11.518Z,1.50
2022-08-21T11:24:11.166Z,1.50
2022-08-21T11:25:11.169Z,1.50
2022-08-21T11:26:11.165Z,1.20
2022-08-21T11:27:11.187Z,1.20
2022-08-21T11:28:14.411Z,1.30
2022-08-21T11:29:11.107Z,1.60
2022-08-21T11:30:11.098Z,1.60
2022-08-21T11:31:11.215Z,1.20
2022-08-21T11:32:11.109Z,1.60
2022-08-21T11:33:11.068Z,1.20
2022-08-21T11:34:11.057Z,1.10
2022-08-21T11:35:11.041Z,1.40
2022-08-21T11:36:11.333Z,1.20
2022-08-21T11:37:11.588Z,1.20
2022-08-21T11:38:11.018Z,1.20
2022-08-21T11:39:10.997Z,1.00
2022-08-21T11:40:11.098Z,1.20
2022-08-21T11:41:10.990Z,1.30
2022-08-21T11:42:10.978Z,1.40
2022-08-21T11:43:10.958Z,1.70
2022-08-21T11:44:10.968Z,2.20
2022-08-21T11:45:10.935Z,1.60
2022-08-21T11:46:10.930Z,1.30
2022-08-21T11:47:10.917Z,1.20
2022-08-21T11:48:12.626Z,1.10
2022-08-21T11:49:10.929Z,1.10
2022-08-21T11:50:29.707Z,1.10
2022-08-21T11:51:11.881Z,1.40
2022-08-21T11:52:10.869Z,1.10
2022-08-21T11:53:10.849Z,1.30
2022-08-21T11:54:10.839Z,1.20
2022-08-21T11:55:10.949Z,1.20
2022-08-21T11:56:10.829Z,1.50
2022-08-21T11:57:10.810Z,1.20
2022-08-21T11:58:10.803Z,1.10
2022-08-21T11:59:10.791Z,1.50
2022-08-21T12:00:10.779Z,1.30
2022-08-21T12:01:10.807Z,1.60
2022-08-21T12:02:10.831Z,1.50
2022-08-21T12:03:10.749Z,1.40
2022-08-21T12:04:10.769Z,1.50
2022-08-21T12:05:10.731Z,1.20
2022-08-21T12:06:10.720Z,1.80
2022-08-21T12:07:10.701Z,1.50
2022-08-21T12:08:10.702Z,1.30
2022-08-21T12:09:10.682Z,1.60
2022-08-21T12:10:10.700Z,1.40
2022-08-21T12:11:10.668Z,1.50
2022-08-21T12:12:10.650Z,1.50
2022-08-21T12:13:10.670Z,1.40
2022-08-21T12:14:10.631Z,1.20
2022-08-21T12:15:10.620Z,1.40
2022-08-21T12:16:10.614Z,1.30
2022-08-21T12:17:12.266Z,1.50
2022-08-21T12:18:10.592Z,1.70
2022-08-21T12:19:10.620Z,1.60
2022-08-21T12:20:10.592Z,1.50
2022-08-21T12:21:10.551Z,1.90
2022-08-21T12:22:10.551Z,2.00
2022-08-21T12:23:12.910Z,1.50
2022-08-21T12:24:10.594Z,2.00
2022-08-21T12:25:10.511Z,1.80
2022-08-21T12:26:10.510Z,1.60
2022-08-21T12:27:10.494Z,1.80
2022-08-21T12:28:10.482Z,1.30
2022-08-21T12:29:10.484Z,1.50
2022-08-21T12:30:10.492Z,1.40
2022-08-21T12:31:10.462Z,1.40
2022-08-21T12:32:10.501Z,1.60
2022-08-21T12:33:10.441Z,1.40
2022-08-21T12:34:10.420Z,1.50
2022-08-21T12:35:23.312Z,1.60
2022-08-21T12:36:11.427Z,1.60
2022-08-21T12:37:10.390Z,1.60
2022-08-21T12:38:10.372Z,1.90
2022-08-21T12:39:10.395Z,1.50
2022-08-21T12:40:10.446Z,1.80
2022-08-21T12:41:10.343Z,1.80
2022-08-21T12:42:10.364Z,1.80
2022-08-21T12:43:10.333Z,1.60
2022-08-21T12:44:10.314Z,1.50
2022-08-21T12:45:10.333Z,1.60
2022-08-21T12:46:10.295Z,1.80
2022-08-21T12:47:10.294Z,1.60
2022-08-21T12:48:10.275Z,1.70
2022-08-21T12:49:10.263Z,1.60
2022-08-21T12:50:10.275Z,1.50
2022-08-21T12:51:10.284Z,1.40
2022-08-21T12:52:10.237Z,1.40
2022-08-21T12:53:20.687Z,1.60
2022-08-21T12:54:11.214Z,1.40
2022-08-21T12:55:10.195Z,1.40
2022-08-21T12:56:10.244Z,1.60
2022-08-21T12:57:10.770Z,1.40
2022-08-21T12:58:10.175Z,1.50
2022-08-21T12:59:10.156Z,1.60
2022-08-21T13:00:10.152Z,1.30
2022-08-21T13:01:10.164Z,1.60
2022-08-21T13:02:10.162Z,1.40
2022-08-21T13:03:10.115Z,1.50
2022-08-21T13:04:10.106Z,1.30
2022-08-21T13:05:10.097Z,1.40
2022-08-21T13:06:10.090Z,1.50
2022-08-21T13:07:10.135Z,1.30
2022-08-21T13:08:10.067Z,1.60
2022-08-21T13:09:10.057Z,1.50
2022-08-21T13:10:10.045Z,1.40
2022-08-21T13:11:15.022Z,1.40
2022-08-21T13:12:11.025Z,1.40
2022-08-21T13:13:12.728Z,1.50
2022-08-21T13:14:10.005Z,1.70
2022-08-21T13:15:09.986Z,1.40
2022-08-21T13:16:10.017Z,1.20